^^
Datos históricos de la estación: Murcia-Puente Tocinos
Diario Informe para Junio 11, 2019 Unidades:  Métrico    Ingés   Ambas
Diario Semanal Mensual Anual
  Máxima: Mínima: Promedio:
Temperatura: 22.8 °C 17.8 °C 19.8 °C
Punto de rocio: 16 °C 4.5 °C 10.5 °C
Humedad: 86% 33% 57%
Velocidad viento: 20.9km/h 2.9km/h 12.5km/h
Racha viento: 46.7km/h - -
Viento- - SO
Presión: 1020.2 hPa 1011.9 hPa -
Precipitación: 0.8 mm    
 
 
Tabla de datos para Junio 11, 2019
Hora Temperatura Punto de rocio Presión Viento Velocidad viento Racha viento Humedad Intensidad lluvia(por hora) Nubes
00:04 21.5 °C 4.6 °C 1012.7 hPa ONO 8.7 km/h 29.8 km/h 33.3% 0.0 mm
00:09 21.4 °C 4.5 °C 1012.7 hPa ONO 10 km/h 31.7 km/h 33% 0.0 mm
00:14 21.4 °C 4.6 °C 1012.7 hPa ONO 17.2 km/h 32.2 km/h 33.3% 0.0 mm
00:19 21.3 °C 4.8 °C 1012.9 hPa NO 17.1 km/h 25.9 km/h 34% 0.0 mm
00:24 21.2 °C 4.7 °C 1012.9 hPa NO 16.4 km/h 25.7 km/h 34% 0.0 mm
00:29 21.2 °C 4.7 °C 1012.9 hPa NO 15.7 km/h 25.6 km/h 34% 0.0 mm
00:34 21.1 °C 5 °C 1012.9 hPa NO 11.9 km/h 27.8 km/h 34.9% 0.0 mm
00:39 20.9 °C 4.9 °C 1012.9 hPa NO 12.1 km/h 27.4 km/h 35% 0.0 mm
00:44 20.8 °C 4.8 °C 1012.9 hPa ONO 13 km/h 27.8 km/h 35% 0.0 mm
00:49 20.8 °C 4.8 °C 1013.0 hPa NO 12.9 km/h 27.4 km/h 35% 0.0 mm
00:54 20.7 °C 4.7 °C 1013.0 hPa NO 11.9 km/h 20.4 km/h 35.1% 0.0 mm
00:59 20.7 °C 5 °C 1013.0 hPa NO 11.9 km/h 23.3 km/h 36% 0.0 mm
01:04 20.6 °C 5 °C 1013.0 hPa ONO 11.9 km/h 24.1 km/h 36% 0.0 mm
01:09 20.6 °C 5 °C 1013.0 hPa ONO 12.4 km/h 30.9 km/h 36% 0.0 mm
01:14 20.5 °C 5 °C 1013.0 hPa ONO 14.8 km/h 30.6 km/h 36.1% 0.0 mm
01:19 20.4 °C 5.2 °C 1013.0 hPa ONO 14.9 km/h 27.8 km/h 36.9% 0.0 mm
01:24 20.3 °C 5.2 °C 1012.8 hPa ONO 15.6 km/h 31.5 km/h 37% 0.0 mm
01:29 20.3 °C 5.2 °C 1012.8 hPa ONO 16 km/h 32.2 km/h 37.3% 0.0 mm
01:34 20.3 °C 5.5 °C 1012.9 hPa ONO 18 km/h 29.8 km/h 38% 0.0 mm
01:39 20.2 °C 5.5 °C 1012.9 hPa ONO 17.9 km/h 30.6 km/h 38.2% 0.0 mm
01:44 20.1 °C 5.7 °C 1012.9 hPa ONO 17.2 km/h 31.7 km/h 39% 0.0 mm
01:49 20.1 °C 5.7 °C 1012.9 hPa NO 17.3 km/h 32.2 km/h 39% 0.0 mm
01:54 20 °C 5.6 °C 1012.6 hPa ONO 18 km/h 29 km/h 39% 0.0 mm
01:59 19.9 °C 5.5 °C 1012.6 hPa ONO 17.7 km/h 27.8 km/h 39% 0.0 mm
02:04 19.9 °C 5.7 °C 1012.6 hPa ONO 16.4 km/h 27.4 km/h 39.5% 0.0 mm
02:09 19.8 °C 5.8 °C 1012.6 hPa ONO 15.9 km/h 26.2 km/h 40% 0.0 mm
02:14 19.7 °C 5.7 °C 1012.6 hPa ONO 13.7 km/h 27.8 km/h 40% 0.0 mm
02:19 19.7 °C 5.7 °C 1012.7 hPa NO 14.1 km/h 29.6 km/h 40% 0.0 mm
02:24 19.6 °C 5.6 °C 1012.7 hPa ONO 16.1 km/h 33.5 km/h 40% 0.0 mm
02:29 19.6 °C 5.7 °C 1012.7 hPa ONO 16.4 km/h 34.3 km/h 40.2% 0.0 mm
02:34 19.5 °C 5.9 °C 1012.7 hPa ONO 18 km/h 33.8 km/h 41% 0.0 mm
02:39 19.4 °C 5.8 °C 1012.6 hPa NO 17.7 km/h 27.4 km/h 41% 0.0 mm
02:44 19.3 °C 6 °C 1012.6 hPa ONO 16.1 km/h 29.6 km/h 41.8% 0.0 mm
02:49 19.3 °C 6 °C 1012.6 hPa ONO 16.3 km/h 33.5 km/h 42% 0.0 mm
02:54 19.2 °C 5.9 °C 1012.6 hPa ONO 17.2 km/h 33.8 km/h 42% 0.0 mm
02:59 19.2 °C 6.1 °C 1012.6 hPa ONO 16.6 km/h 28.2 km/h 42.4% 0.0 mm
03:04 19.1 °C 6.2 °C 1012.6 hPa ONO 14 km/h 29.6 km/h 43% 0.0 mm
03:09 19.1 °C 6.2 °C 1012.6 hPa ONO 14.4 km/h 29 km/h 43% 0.0 mm
03:14 19 °C 6.4 °C 1012.6 hPa ONO 16.1 km/h 25.9 km/h 43.9% 0.0 mm
03:19 18.9 °C 6.4 °C 1012.6 hPa ONO 15.9 km/h 33.3 km/h 44% 0.0 mm
03:24 18.8 °C 6.5 °C 1012.4 hPa ONO 14.8 km/h 34.3 km/h 44.6% 0.0 mm
03:29 18.8 °C 6.6 °C 1012.3 hPa NO 15.4 km/h 33.8 km/h 45% 0.0 mm
03:34 18.8 °C 6.6 °C 1012.3 hPa ONO 19 km/h 37.8 km/h 45% 0.0 mm
03:39 18.8 °C 6.8 °C 1012.3 hPa ONO 19.2 km/h 37 km/h 45.5% 0.0 mm
03:44 18.7 °C 6.8 °C 1012.3 hPa ONO 20.1 km/h 33.8 km/h 46% 0.0 mm
03:49 18.7 °C 6.8 °C 1012.3 hPa ONO 19.4 km/h 29 km/h 46% 0.0 mm
03:54 18.6 °C 6.8 °C 1012.2 hPa ONO 15.6 km/h 33.3 km/h 46.3% 0.0 mm
03:59 18.5 °C 6.9 °C 1012.2 hPa ONO 15.7 km/h 33.8 km/h 47% 0.0 mm
04:04 18.4 °C 6.9 °C 1012.2 hPa ONO 16.1 km/h 37.8 km/h 47% 0.0 mm
04:09 18.4 °C 6.9 °C 1012.2 hPa ONO 16.4 km/h 37 km/h 47.1% 0.0 mm
04:14 18.3 °C 7.1 °C 1012.2 hPa ONO 18 km/h 27.4 km/h 48% 0.0 mm
04:19 18.3 °C 7.1 °C 1012.2 hPa ONO 17.5 km/h 25.9 km/h 48% 0.0 mm
04:24 18.3 °C 7.1 °C 1012.0 hPa ONO 14.8 km/h 27.8 km/h 48% 0.0 mm
04:29 18.3 °C 7.1 °C 1011.9 hPa ONO 14.8 km/h 27.8 km/h 48% 0.0 mm
04:34 18.3 °C 7.1 °C 1012.0 hPa ONO 14.8 km/h 32.3 km/h 48% 0.0 mm
04:39 18.4 °C 7.2 °C 1012.0 hPa ONO 15.2 km/h 33.8 km/h 48% 0.0 mm
04:44 18.4 °C 7.2 °C 1012.0 hPa ONO 17.2 km/h 29 km/h 48% 0.0 mm
04:49 18.4 °C 7.2 °C 1012.1 hPa ONO 16.6 km/h 25.7 km/h 48% 0.0 mm
04:54 18.4 °C 7.2 °C 1012.1 hPa ONO 13.7 km/h 22.5 km/h 48% 0.0 mm
04:59 18.4 °C 7.2 °C 1012.1 hPa ONO 12.9 km/h 27.8 km/h 48% 0.0 mm
05:04 18.3 °C 7.1 °C 1012.1 hPa ONO 10 km/h 31.5 km/h 48% 0.0 mm
05:09 18.3 °C 7.1 °C 1012.0 hPa ONO 10.7 km/h 32.2 km/h 48% 0.0 mm
05:14 18.3 °C 7.1 °C 1012.0 hPa ONO 14.8 km/h 29.6 km/h 48% 0.0 mm
05:19 18.3 °C 7.1 °C 1012.1 hPa ONO 14.5 km/h 29 km/h 48% 0.0 mm
05:24 18.3 °C 7.1 °C 1012.1 hPa ONO 13 km/h 27.8 km/h 48% 0.0 mm
05:29 18.3 °C 7.1 °C 1012.1 hPa ONO 12.8 km/h 27.4 km/h 48% 0.0 mm
05:34 18.3 °C 7.1 °C 1012.1 hPa ONO 11.9 km/h 20.9 km/h 48% 0.0 mm
05:39 18.3 °C 7.1 °C 1012.0 hPa ONO 11 km/h 14.8 km/h 48% 0.0 mm
05:44 18.3 °C 7.1 °C 1012.0 hPa NO 6.9 km/h 16.7 km/h 48% 0.0 mm
05:49 18.3 °C 7.1 °C 1012.0 hPa NNO 6.6 km/h 16.1 km/h 48% 0.0 mm
05:54 18.3 °C 7.1 °C 1012.0 hPa NNE 4.7 km/h 8 km/h 48% 0.0 mm
05:59 18.3 °C 7.2 °C 1012.0 hPa ENE 4.3 km/h 5.8 km/h 48.3% 0.0 mm
06:04 18.3 °C 7.2 °C 1012.1 hPa ONO 2.9 km/h 11.1 km/h 48.2% 0.0 mm
06:09 18.3 °C 7.1 °C 1012.1 hPa Oeste 3.2 km/h 11.3 km/h 48% 0.0 mm
06:14 18.3 °C 7.1 °C 1012.1 hPa SO 4.7 km/h 9.7 km/h 48% 0.0 mm
06:19 18.3 °C 7.1 °C 1012.3 hPa Sur 4.7 km/h 9.7 km/h 48% 0.0 mm
06:24 18.3 °C 7.1 °C 1012.3 hPa ONO 4.7 km/h 20.4 km/h 48% 0.0 mm
06:29 18.4 °C 7.2 °C 1012.3 hPa ONO 5.5 km/h 20.9 km/h 48% 0.0 mm
06:34 18.4 °C 7.2 °C 1012.4 hPa ONO 9.5 km/h 19.3 km/h 48% 0.0 mm
06:39 18.5 °C 7.2 °C 1012.4 hPa ONO 9.5 km/h 19.3 km/h 47.7% 0.0 mm
06:44 18.5 °C 7.2 °C 1012.4 hPa ONO 9.5 km/h 16.7 km/h 47.8% 0.0 mm
06:49 18.5 °C 7.3 °C 1012.4 hPa ONO 9.4 km/h 20.4 km/h 48% 0.0 mm
06:54 18.4 °C 7.2 °C 1012.3 hPa ONO 8.7 km/h 20.9 km/h 48% 0.0 mm
06:59 18.4 °C 7.2 °C 1012.3 hPa ONO 9.2 km/h 20.9 km/h 48% 0.0 mm
07:04 18.4 °C 7.2 °C 1012.5 hPa ONO 11.1 km/h 20.9 km/h 48% 0.0 mm
07:09 18.5 °C 7.3 °C 1012.5 hPa ONO 11.1 km/h 20.9 km/h 48% 0.0 mm
07:14 18.5 °C 7.3 °C 1012.5 hPa ONO 11.1 km/h 20.9 km/h 48% 0.0 mm
07:19 18.6 °C 7.3 °C 1012.5 hPa ONO 10.8 km/h 16.7 km/h 48% 0.0 mm
07:24 18.6 °C 7.4 °C 1012.5 hPa Oeste 9.5 km/h 16.1 km/h 48% 0.0 mm
07:29 18.7 °C 7.4 °C 1012.5 hPa Oeste 9 km/h 16.1 km/h 48% 0.0 mm
07:34 18.7 °C 7.4 °C 1012.5 hPa Oeste 6.9 km/h 14.5 km/h 48% 0.0 mm
07:39 18.7 °C 7.5 °C 1012.5 hPa OSO 7 km/h 14.5 km/h 48% 0.0 mm
07:44 18.8 °C 7.4 °C 1012.5 hPa OSO 7.6 km/h 14 km/h 47.4% 0.0 mm
07:49 18.9 °C 7.3 °C 1012.5 hPa SO 7.8 km/h 17.2 km/h 47% 0.0 mm
07:54 18.9 °C 7.3 °C 1012.3 hPa OSO 8.7 km/h 17.7 km/h 47% 0.0 mm
07:59 18.9 °C 7.6 °C 1012.3 hPa Oeste 8.5 km/h 16.1 km/h 47.6% 0.0 mm
08:04 19 °C 7.7 °C 1012.6 hPa ONO 7.6 km/h 24.1 km/h 48% 0.0 mm
08:09 19.1 °C 7.7 °C 1012.6 hPa ONO 8.4 km/h 24.1 km/h 47.7% 0.0 mm
08:14 19.2 °C 7.6 °C 1012.6 hPa ONO 12.2 km/h 28.2 km/h 47% 0.0 mm
08:19 19.2 °C 7.6 °C 1012.7 hPa ONO 12.8 km/h 27.8 km/h 47% 0.0 mm
08:24 19.3 °C 7.7 °C 1012.7 hPa ONO 15.6 km/h 27.8 km/h 47% 0.0 mm
08:29 19.3 °C 7.7 °C 1012.7 hPa ONO 15.5 km/h 27.8 km/h 47% 0.0 mm
08:34 19.4 °C 7.8 °C 1012.7 hPa ONO 14.8 km/h 30.9 km/h 47% 0.0 mm
08:39 19.4 °C 7.8 °C 1012.7 hPa Oeste 14.9 km/h 32.2 km/h 47% 0.0 mm
08:44 19.4 °C 7.8 °C 1012.7 hPa ONO 15.6 km/h 32.2 km/h 47% 0.0 mm
08:49 19.4 °C 7.8 °C 1012.9 hPa ONO 15.5 km/h 28.2 km/h 47% 0.0 mm
08:54 19.4 °C 7.8 °C 1012.9 hPa ONO 14.8 km/h 27.8 km/h 47% 0.0 mm
08:59 19.5 °C 7.9 °C 1012.9 hPa ONO 14.6 km/h 25.9 km/h 47% 0.0 mm
09:04 19.6 °C 7.8 °C 1013.0 hPa ONO 14 km/h 29.8 km/h 46.5% 0.0 mm
09:09 19.6 °C 7.7 °C 1013.0 hPa ONO 14.3 km/h 30.6 km/h 46% 0.0 mm
09:14 19.7 °C 7.7 °C 1013.0 hPa ONO 15.6 km/h 27.4 km/h 46% 0.0 mm
09:19 19.7 °C 7.7 °C 1013.2 hPa ONO 15.5 km/h 29.1 km/h 46% 0.0 mm
09:24 19.7 °C 7.7 °C 1013.2 hPa ONO 14.8 km/h 29.6 km/h 46% 0.0 mm
09:29 19.7 °C 7.7 °C 1013.2 hPa Oeste 14.9 km/h 29 km/h 46% 0.0 mm
09:34 19.7 °C 7.8 °C 1013.4 hPa Oeste 15.6 km/h 29.6 km/h 46.2% 0.0 mm
09:39 19.7 °C 8.1 °C 1013.4 hPa ONO 15.6 km/h 29 km/h 47% 0.0 mm
09:44 19.7 °C 8.2 °C 1013.4 hPa ONO 15.6 km/h 30.9 km/h 47.5% 0.0 mm
09:49 19.5 °C 8.4 °C 1013.6 hPa ONO 15.7 km/h 37 km/h 48.7% 0.0 mm
09:54 19.3 °C 8.5 °C 1013.6 hPa ONO 16.4 km/h 37 km/h 49.7% 0.0 mm
09:59 19.2 °C 8.5 °C 1013.6 hPa ONO 16.3 km/h 34.3 km/h 50% 0.0 mm
10:04 19.2 °C 8.5 °C 1013.9 hPa ONO 16.1 km/h 34.3 km/h 50% 0.0 mm
10:09 19.1 °C 8.5 °C 1013.9 hPa ONO 16.7 km/h 33.8 km/h 50.2% 0.0 mm
10:14 19 °C 8.9 °C 1013.9 hPa ONO 19.8 km/h 38.9 km/h 52% 0.0 mm
10:19 18.8 °C 9.5 °C 1014.3 hPa ONO 19.2 km/h 38.6 km/h 55% 0.0 mm
10:24 18.4 °C 9.7 °C 1014.3 hPa ONO 16.1 km/h 30.6 km/h 56.9% 0.0 mm
10:29 18.2 °C 9.7 °C 1014.3 hPa ONO 16.1 km/h 30.6 km/h 57.5% 0.0 mm
10:34 18.2 °C 9.8 °C 1014.5 hPa ONO 16.4 km/h 29.6 km/h 57.9% 0.0 mm
10:39 18.2 °C 10.2 °C 1014.5 hPa ONO 16.4 km/h 29 km/h 59.7% 0.0 mm
10:44 18 °C 10.5 °C 1014.5 hPa ONO 16.4 km/h 27.8 km/h 61.8% 0.0 mm
10:49 17.8 °C 10.8 °C 1014.6 hPa ONO 15.8 km/h 27.4 km/h 63.3% 0.0 mm
10:54 17.8 °C 11 °C 1014.6 hPa Oeste 13 km/h 24.1 km/h 64.4% 0.0 mm
10:59 17.8 °C 11.1 °C 1014.6 hPa Oeste 12.6 km/h 24.1 km/h 65.2% 0.0 mm
11:04 17.8 °C 11.3 °C 1014.7 hPa Oeste 11.1 km/h 22 km/h 65.9% 0.0 mm
11:09 17.9 °C 11.3 °C 1014.7 hPa Oeste 10.9 km/h 22.5 km/h 65.5% 0.0 mm
11:14 17.9 °C 11.1 °C 1014.7 hPa Oeste 10 km/h 24.1 km/h 64.3% 0.0 mm
11:19 18 °C 10.9 °C 1014.7 hPa Oeste 10.4 km/h 24.1 km/h 63.2% 0.0 mm
11:24 18.2 °C 11 °C 1014.7 hPa OSO 12.2 km/h 22 km/h 62.8% 0.0 mm
11:29 18.3 °C 10.9 °C 1014.7 hPa Oeste 11.9 km/h 23.3 km/h 61.9% 0.0 mm
11:34 18.5 °C 10.9 °C 1014.7 hPa OSO 10.3 km/h 24.1 km/h 61.6% 0.0 mm
11:39 18.7 °C 10.9 °C 1014.6 hPa Oeste 10.2 km/h 16.1 km/h 60.5% 0.0 mm
11:44 18.8 °C 10.8 °C 1014.6 hPa Oeste 9.5 km/h 20.4 km/h 59.6% 0.0 mm
11:49 18.9 °C 10.7 °C 1014.7 hPa Oeste 9.9 km/h 24.5 km/h 59% 0.0 mm
11:54 19.1 °C 10.9 °C 1014.7 hPa Oeste 11.9 km/h 24.1 km/h 59% 0.0 mm
11:59 19.3 °C 10.9 °C 1014.7 hPa OSO 11.7 km/h 22.5 km/h 58.3% 0.0 mm
12:04 19.4 °C 11 °C 1014.7 hPa OSO 11.1 km/h 20.9 km/h 58.1% 0.0 mm
12:09 19.6 °C 11.1 °C 1014.5 hPa OSO 11 km/h 17.7 km/h 58% 0.0 mm
12:14 19.7 °C 11.2 °C 1014.5 hPa ONO 10.3 km/h 20.4 km/h 57.9% 0.0 mm
12:19 20 °C 11.2 °C 1014.5 hPa ONO 10.3 km/h 24.1 km/h 57% 0.0 mm
12:24 20.2 °C 11.2 °C 1014.4 hPa ONO 10.3 km/h 24.1 km/h 56% 0.0 mm
12:29 20.5 °C 11.4 °C 1014.4 hPa NO 10.6 km/h 20.9 km/h 56% 0.0 mm
12:34 20.8 °C 11.5 °C 1014.4 hPa NO 11.9 km/h 29.8 km/h 55.6% 0.0 mm
12:39 21 °C 11.5 °C 1014.4 hPa NNO 12.2 km/h 30.6 km/h 54.9% 0.0 mm
12:44 21.1 °C 11.6 °C 1014.4 hPa North 13.7 km/h 20.9 km/h 54.4% 0.0 mm
12:49 21.2 °C 11.7 °C 1014.6 hPa NNE 13.6 km/h 24.5 km/h 55% 0.0 mm
12:54 20.9 °C 11.8 °C 1014.6 hPa NNE 13 km/h 24.1 km/h 56% 0.0 mm
12:59 20.9 °C 11.8 °C 1014.6 hPa NNE 12.6 km/h 22.2 km/h 56% 0.0 mm
13:04 20.9 °C 11.8 °C 1014.7 hPa NNE 11.1 km/h 22.5 km/h 56% 0.0 mm
13:09 21.1 °C 12 °C 1014.7 hPa North 11.2 km/h 25.9 km/h 56% 0.0 mm
13:14 21.2 °C 12.1 °C 1014.7 hPa North 11.9 km/h 40.7 km/h 56% 0.0 mm
13:19 21 °C 12.3 °C 1014.9 hPa North 13.2 km/h 40.2 km/h 57.6% 0.0 mm
13:24 20.6 °C 12.5 °C 1014.9 hPa NNE 20.1 km/h 35.4 km/h 59.9% 0.0 mm
13:29 20.6 °C 12.3 °C 1014.9 hPa NNE 19.5 km/h 35.9 km/h 59.1% 0.0 mm
13:34 20.7 °C 12.1 °C 1014.9 hPa North 16.1 km/h 38.9 km/h 58.2% 0.0 mm
13:39 20.8 °C 12.1 °C 1014.8 hPa North 16.5 km/h 38.6 km/h 57.7% 0.0 mm
13:44 20.8 °C 12.3 °C 1014.8 hPa North 19 km/h 39.6 km/h 57.9% 0.0 mm
13:49 20.8 °C 12.2 °C 1015.3 hPa North 18.9 km/h 40.2 km/h 58% 0.0 mm
13:54 20.7 °C 12.2 °C 1015.3 hPa North 18.4 km/h 37 km/h 58.1% 0.0 mm
13:59 20.7 °C 12.3 °C 1015.3 hPa North 18.9 km/h 45.7 km/h 59% 0.0 mm
14:04 20.7 °C 12.4 °C 1015.3 hPa North 20.9 km/h 46.7 km/h 58.9% 0.0 mm
14:09 20.8 °C 12.3 °C 1015.0 hPa North 20.6 km/h 37 km/h 57.9% 0.0 mm
14:14 20.9 °C 12.2 °C 1014.9 hPa North 19 km/h 37 km/h 57.4% 0.0 mm
14:19 21.1 °C 12.2 °C 1015.0 hPa North 18.8 km/h 35.4 km/h 57% 0.0 mm
14:24 21.2 °C 12.2 °C 1015.0 hPa NNO 18 km/h 35.9 km/h 56.4% 0.0 mm
14:29 21.2 °C 12.2 °C 1015.0 hPa North 17.9 km/h 35.4 km/h 56.2% 0.0 mm
14:34 21.4 °C 12.3 °C 1015.2 hPa North 17.2 km/h 29 km/h 56% 0.0 mm
14:39 21.6 °C 12.3 °C 1015.2 hPa North 16.6 km/h 33.5 km/h 55.7% 0.0 mm
14:44 21.6 °C 12.1 °C 1015.2 hPa North 13.7 km/h 33.8 km/h 54.8% 0.0 mm
14:49 21.7 °C 12.2 °C 1015.3 hPa NNE 14.3 km/h 33.8 km/h 54.9% 0.0 mm
14:54 22 °C 12.2 °C 1015.3 hPa NNE 17.2 km/h 30.6 km/h 53.9% 0.0 mm
14:59 22.2 °C 12.1 °C 1015.3 hPa North 17.1 km/h 31.5 km/h 53% 0.0 mm
15:04 22.2 °C 12.2 °C 1015.3 hPa North 16.4 km/h 35.2 km/h 53.2% 0.0 mm
15:09 22.3 °C 12.2 °C 1015.3 hPa NNE 16.7 km/h 37 km/h 53% 0.0 mm
15:14 22.2 °C 12.2 °C 1015.3 hPa NNE 18.4 km/h 37 km/h 53.2% 0.0 mm
15:19 22.3 °C 12.4 °C 1015.4 hPa North 17.9 km/h 33.8 km/h 53.4% 0.0 mm
15:24 22.3 °C 12.3 °C 1015.4 hPa North 15.6 km/h 33.8 km/h 53% 0.0 mm
15:29 22.3 °C 12.3 °C 1015.4 hPa North 15.1 km/h 25.7 km/h 53.1% 0.0 mm
15:34 22.4 °C 12.4 °C 1015.4 hPa North 13 km/h 31.5 km/h 52.9% 0.0 mm
15:39 22.6 °C 12.3 °C 1015.4 hPa North 13.1 km/h 35.9 km/h 52.2% 0.0 mm
15:44 22.6 °C 12.3 °C 1015.4 hPa NNE 13.7 km/h 35.4 km/h 52.3% 0.0 mm
15:49 22.3 °C 12.1 °C 1015.5 hPa North 14 km/h 31.7 km/h 52.3% 0.0 mm
15:54 22.2 °C 12.3 °C 1015.5 hPa North 15.6 km/h 33.3 km/h 53.5% 0.0 mm
15:59 22.4 °C 12.6 °C 1015.5 hPa North 15.6 km/h 33.8 km/h 54% 0.0 mm
16:04 22.7 °C 12.8 °C 1015.5 hPa North 15.6 km/h 24.5 km/h 53.7% 0.0 mm
16:09 22.8 °C 12.9 °C 1015.4 hPa NNE 15.3 km/h 27.8 km/h 53.8% 0.0 mm
16:14 22.6 °C 12.9 °C 1015.4 hPa North 13.7 km/h 34.6 km/h 54.2% 0.0 mm
16:19 22.3 °C 12.9 °C 1015.7 hPa NNE 14.1 km/h 35.4 km/h 55.3% 0.0 mm
16:24 22.2 °C 13.1 °C 1015.7 hPa NNE 16.4 km/h 29 km/h 56% 0.0 mm
16:29 22.2 °C 13.2 °C 1015.7 hPa NNO 16.2 km/h 29.1 km/h 56.6% 0.0 mm
16:34 21.9 °C 13.4 °C 1016.0 hPa North 14.8 km/h 33.5 km/h 58.3% 0.0 mm
16:39 21.8 °C 13.6 °C 1016.0 hPa North 14.9 km/h 33.8 km/h 59.9% 0.0 mm
16:44 21.7 °C 13.6 °C 1016.0 hPa North 15.6 km/h 25.9 km/h 60% 0.0 mm
16:49 21.8 °C 13.6 °C 1016.0 hPa NNE 14.8 km/h 25.7 km/h 59.8% 0.0 mm
16:54 21.9 °C 13.5 °C 1016.0 hPa North 11.1 km/h 25.9 km/h 58.7% 0.0 mm
16:59 22.2 °C 13.5 °C 1016.0 hPa NNE 11.7 km/h 27.8 km/h 57.9% 0.0 mm
17:04 22.2 °C 13.1 °C 1016.0 hPa NE 14 km/h 35.2 km/h 56.3% 0.0 mm
17:09 22.2 °C 12.1 °C 1016.0 hPa NE 14.6 km/h 35.4 km/h 52.9% 0.0 mm
17:14 22.2 °C 12 °C 1016.0 hPa NE 17.2 km/h 35.4 km/h 52.5% 0.0 mm
17:19 22.1 °C 12.1 °C 1016.1 hPa NNE 17 km/h 30.6 km/h 53% 0.0 mm
17:24 22.1 °C 12.1 °C 1016.1 hPa NE 16.1 km/h 25.9 km/h 53% 0.0 mm
17:29 22.3 °C 12 °C 1016.1 hPa NE 15.7 km/h 33.5 km/h 52.4% 0.0 mm
17:34 22.4 °C 11.8 °C 1016.1 hPa NE 13.7 km/h 35.2 km/h 51.1% 0.0 mm
17:39 22.3 °C 12 °C 1016.1 hPa NE 14.6 km/h 35.4 km/h 52.1% 0.0 mm
17:44 22 °C 12 °C 1016.1 hPa NE 20.1 km/h 32.2 km/h 53.3% 0.0 mm
17:49 21.8 °C 12.1 °C 1016.5 hPa NNE 19.6 km/h 30.6 km/h 54% 0.0 mm
17:54 21.7 °C 12.1 °C 1016.5 hPa NNE 17.2 km/h 27.8 km/h 54.5% 0.0 mm
17:59 21.7 °C 12.1 °C 1016.5 hPa NNE 16.7 km/h 27.4 km/h 54.1% 0.0 mm
18:04 21.8 °C 12.2 °C 1016.6 hPa NNE 14.8 km/h 22.5 km/h 54.5% 0.0 mm
18:09 21.8 °C 12.3 °C 1016.6 hPa NNE 14.4 km/h 22.5 km/h 55% 0.0 mm
18:14 21.8 °C 12.4 °C 1016.6 hPa NE 12.2 km/h 25.9 km/h 55.3% 0.0 mm
18:19 21.6 °C 13 °C 1016.9 hPa NNE 12.5 km/h 25.9 km/h 58.2% 0.0 mm
18:24 21.2 °C 13.3 °C 1016.9 hPa NNE 13.7 km/h 25.7 km/h 60.7% 0.0 mm
18:29 21.2 °C 13.6 °C 1016.9 hPa NNE 12.6 km/h 20.1 km/h 62% 0.0 mm
18:34 20.9 °C 14.3 °C 1017.1 hPa NNO 7.6 km/h 20.9 km/h 66.1% 0.0 mm
18:39 20.6 °C 14.5 °C 1017.1 hPa North 7.8 km/h 20.9 km/h 68.3% 0.0 mm
18:44 20.4 °C 14.2 °C 1017.1 hPa NNO 8.7 km/h 16.7 km/h 67.9% 0.0 mm
18:49 20.3 °C 14.5 °C 1017.3 hPa NO 9 km/h 20.9 km/h 69.4% 0.0 mm
18:54 20 °C 14.9 °C 1017.3 hPa North 10.3 km/h 20.9 km/h 72.7% 0.0 mm
18:59 19.8 °C 14.8 °C 1017.3 hPa NNE 10 km/h 19 km/h 73% 0.0 mm
19:04 19.7 °C 14.6 °C 1017.7 hPa NNE 8.7 km/h 19.3 km/h 72.2% 0.0 mm
19:09 19.8 °C 14.6 °C 1017.7 hPa North 8.7 km/h 19.3 km/h 71.7% 0.0 mm
19:14 20 °C 14.7 °C 1017.7 hPa NO 8.7 km/h 14.5 km/h 71.6% 0.0 mm
19:19 20 °C 15 °C 1017.7 hPa NNO 8.3 km/h 14 km/h 73.2% 0.0 mm
19:24 19.8 °C 14.9 °C 1017.6 hPa NNE 6.5 km/h 14.8 km/h 73% 0.0 mm
19:29 19.8 °C 14.9 °C 1017.6 hPa NNE 6.8 km/h 18.5 km/h 73.3% 0.0 mm
19:34 19.8 °C 14.9 °C 1018.1 hPa NE 8.4 km/h 19.3 km/h 73.5% 0.0 mm
19:39 19.8 °C 15.1 °C 1018.1 hPa NE 8.1 km/h 12.9 km/h 74% 0.0 mm
19:44 19.8 °C 15 °C 1018.1 hPa NNE 6.5 km/h 19 km/h 74% 0.0 mm
19:49 19.7 °C 15 °C 1018.4 hPa NE 7 km/h 19.3 km/h 74.4% 0.0 mm
19:54 19.6 °C 15 °C 1018.4 hPa NE 9.5 km/h 19.3 km/h 75% 0.0 mm
19:59 19.5 °C 15 °C 1018.4 hPa NNO 9.1 km/h 14.5 km/h 75.4% 0.0 mm
20:04 19.4 °C 15.2 °C 1018.4 hPa ONO 7.6 km/h 14.5 km/h 76.5% 0.0 mm
20:09 19.3 °C 15.3 °C 1018.4 hPa ONO 7.4 km/h 10 km/h 77.3% 0.0 mm
20:14 19.3 °C 15.3 °C 1018.4 hPa NO 6.5 km/h 10 km/h 78% 0.0 mm
20:19 19.2 °C 15.4 °C 1018.8 hPa NO 6.3 km/h 9.7 km/h 78.8% 0.0 mm
20:24 19.2 °C 15.4 °C 1018.8 hPa NO 5.8 km/h 9.7 km/h 79% 0.0 mm
20:29 19.2 °C 15.4 °C 1018.8 hPa NNO 5.5 km/h 8 km/h 79% 0.0 mm
20:34 19.2 °C 15.3 °C 1018.8 hPa ONO 3.9 km/h 8 km/h 78.5% 0.0 mm
20:39 19.2 °C 15.4 °C 1018.8 hPa ONO 4 km/h 9.5 km/h 79% 0.0 mm
20:44 19.2 °C 15.4 °C 1018.8 hPa Oeste 5 km/h 9.7 km/h 79% 0.0 mm
20:49 19.1 °C 15.4 °C 1018.8 hPa Oeste 5.1 km/h 10 km/h 79% 0.0 mm
20:54 19.1 °C 15.4 °C 1018.8 hPa ONO 5.8 km/h 9.7 km/h 79% 0.0 mm
20:59 19.2 °C 15.4 °C 1018.8 hPa OSO 5.2 km/h 8 km/h 78.8% 0.0 mm
21:04 19.2 °C 15.4 °C 1019.2 hPa SSE 3.2 km/h 14.8 km/h 78.5% 0.3 mm
21:09 19.3 °C 15.4 °C 1019.2 hPa ESE 4 km/h 18.5 km/h 77.9% 0.3 mm
21:14 19.3 °C 15.5 °C 1019.2 hPa Sur 7.6 km/h 19.3 km/h 78.6% 0.5 mm
21:19 19.3 °C 15.7 °C 1019.3 hPa Oeste 7.4 km/h 11.3 km/h 80.1% 0.5 mm
21:24 19.2 °C 15.8 °C 1019.3 hPa Oeste 6.5 km/h 12.2 km/h 81% 0.5 mm
21:29 19 °C 15.8 °C 1019.3 hPa OSO 6.8 km/h 16.7 km/h 82% 0.8 mm
21:34 18.9 °C 15.9 °C 1019.3 hPa OSO 8.4 km/h 16.1 km/h 82.5% 0.8 mm
21:39 18.9 °C 15.9 °C 1019.3 hPa Oeste 8.6 km/h 15.6 km/h 83% 0.8 mm
21:44 18.8 °C 15.9 °C 1019.3 hPa OSO 9.5 km/h 16.1 km/h 83.4% 0.8 mm
21:49 18.8 °C 15.8 °C 1019.5 hPa OSO 9.3 km/h 14.8 km/h 83% 0.8 mm
21:54 18.8 °C 15.9 °C 1019.5 hPa OSO 8.4 km/h 14.5 km/h 83.1% 0.8 mm
21:59 18.8 °C 15.8 °C 1019.5 hPa OSO 8.4 km/h 14.8 km/h 83% 0.8 mm
22:04 18.8 °C 15.8 °C 1019.7 hPa OSO 8.7 km/h 14.5 km/h 83.1% 0.8 mm
22:09 18.8 °C 15.9 °C 1019.7 hPa OSO 8.4 km/h 12.9 km/h 83.4% 0.5 mm
22:14 18.8 °C 15.8 °C 1019.7 hPa OSO 6.9 km/h 11.3 km/h 83% 0.5 mm
22:19 18.8 °C 15.9 °C 1019.8 hPa SO 6.6 km/h 13 km/h 83.4% 0.3 mm
22:24 18.7 °C 16 °C 1019.8 hPa SSO 5 km/h 15.6 km/h 84% 0.3 mm
22:29 18.7 °C 16 °C 1019.8 hPa SO 5.6 km/h 16.1 km/h 84.7% 0.3 mm
22:34 18.6 °C 16 °C 1019.8 hPa SO 8.7 km/h 14.5 km/h 85% 0.0 mm
22:39 18.6 °C 16 °C 1019.6 hPa OSO 8.4 km/h 12.9 km/h 85% 0.0 mm
22:44 18.6 °C 16 °C 1019.6 hPa SO 6.9 km/h 9.7 km/h 84.7% 0.0 mm
22:49 18.6 °C 15.9 °C 1019.8 hPa SSO 6.9 km/h 11.9 km/h 84.6% 0.0 mm
22:54 18.4 °C 15.9 °C 1019.8 hPa SSO 6.5 km/h 13 km/h 85% 0.0 mm
22:59 18.4 °C 15.8 °C 1019.8 hPa SSO 6.9 km/h 13 km/h 85% 0.0 mm
23:04 18.4 °C 15.8 °C 1020.2 hPa SSO 8.7 km/h 13 km/h 85% 0.0 mm
23:09 18.3 °C 15.9 °C 1020.2 hPa SSO 8.6 km/h 11.9 km/h 85.6% 0.0 mm
23:14 18.3 °C 15.9 °C 1020.2 hPa SO 8.4 km/h 13 km/h 86% 0.0 mm
23:19 18.3 °C 15.8 °C 1020.2 hPa SSO 8.2 km/h 14 km/h 85.3% 0.0 mm
23:24 18.3 °C 15.8 °C 1020.0 hPa SSO 7.6 km/h 14.8 km/h 85% 0.0 mm
23:29 18.4 °C 15.8 °C 1019.9 hPa SSO 7.7 km/h 14.8 km/h 85% 0.0 mm
23:34 18.4 °C 15.8 °C 1020.2 hPa SO 8.7 km/h 14.8 km/h 84.6% 0.0 mm
23:39 18.4 °C 15.7 °C 1020.2 hPa SSO 8.6 km/h 14.8 km/h 84% 0.0 mm
23:44 18.4 °C 15.6 °C 1020.2 hPa SO 8.4 km/h 14.5 km/h 83.5% 0.0 mm
23:49 18.4 °C 15.5 °C 1020.2 hPa SO 8.2 km/h 13 km/h 83.2% 0.0 mm
23:54 18.5 °C 15.6 °C 1020.0 hPa SO 7.6 km/h 13.7 km/h 83% 0.0 mm
23:59 18.5 °C 15.5 °C 1020.0 hPa SO 7.6 km/h 14.5 km/h 82.9% 0.0 mm
Murcia-Puente Tocinos, España
Compliments of Weather Underground - 3 mb

La estación de MeteoMurcia.com, publica sus datos en los siguientes proyectos:

Weather Underground PWS IMURCIAP2 Meteoclimatic www.awekas.at

W3Counter
Web Analytics